createdAt,value
2018-11-14T00:00:26.357Z,90.13
2018-11-14T00:02:55.111Z,89.21
2018-11-14T00:05:23.377Z,89.40
2018-11-14T00:07:51.563Z,88.78
2018-11-14T00:10:20.358Z,88.26
2018-11-14T00:12:48.153Z,88.81
2018-11-14T00:15:17.632Z,89.29
2018-11-14T00:17:46.625Z,88.01
2018-11-14T00:20:15.086Z,88.47
2018-11-14T00:22:44.353Z,89.05
2018-11-14T00:25:12.465Z,88.65
2018-11-14T00:27:40.619Z,89.60
2018-11-14T00:30:14.779Z,88.67
2018-11-14T00:32:43.232Z,88.61
2018-11-14T00:35:11.977Z,87.96
2018-11-14T00:37:40.547Z,88.04
2018-11-14T00:40:10.199Z,88.08
2018-11-14T00:42:38.564Z,88.28
2018-11-14T00:45:08.590Z,88.02
2018-11-14T00:47:36.681Z,88.03
2018-11-14T00:50:05.439Z,87.92
2018-11-14T00:52:33.586Z,88.77
2018-11-14T00:55:01.709Z,88.80
2018-11-14T00:57:29.837Z,88.83
2018-11-14T00:59:58.093Z,89.13
2018-11-14T01:02:26.233Z,89.15
2018-11-14T01:04:54.545Z,89.34
2018-11-14T01:07:22.681Z,88.99
2018-11-14T01:09:50.805Z,89.86
2018-11-14T01:12:18.939Z,89.77
2018-11-14T01:14:47.057Z,90.79
2018-11-14T01:17:15.240Z,89.57
2018-11-14T01:19:43.369Z,89.97
2018-11-14T01:22:11.475Z,90.79
2018-11-14T01:24:39.676Z,90.68
2018-11-14T01:27:07.988Z,90.36
2018-11-14T01:29:36.109Z,91.13
2018-11-14T01:32:04.355Z,90.74
2018-11-14T01:34:32.488Z,91.26
2018-11-14T01:37:00.768Z,92.24
2018-11-14T01:39:28.982Z,91.34
2018-11-14T01:41:57.143Z,91.29
2018-11-14T01:44:25.246Z,91.52
2018-11-14T01:46:53.364Z,92.27
2018-11-14T01:49:21.596Z,92.19
2018-11-14T01:51:49.910Z,91.99
2018-11-14T01:54:18.058Z,92.15
2018-11-14T01:56:46.238Z,92.27
2018-11-14T01:59:14.538Z,92.47
2018-11-14T02:01:42.645Z,91.74
2018-11-14T02:04:10.789Z,91.87
2018-11-14T02:06:39.074Z,91.44
2018-11-14T02:09:08.428Z,91.71
2018-11-14T02:11:36.616Z,91.92
2018-11-14T02:14:05.070Z,92.12
2018-11-14T02:16:33.201Z,92.47
2018-11-14T02:19:01.326Z,91.31
2018-11-14T02:21:29.546Z,92.12
2018-11-14T02:23:57.705Z,91.69
2018-11-14T02:26:25.830Z,91.70
2018-11-14T02:28:54.036Z,91.37
2018-11-14T02:31:22.379Z,91.26
2018-11-14T02:33:50.560Z,91.46
2018-11-14T02:36:18.874Z,91.63
2018-11-14T02:38:47.051Z,91.58
2018-11-14T02:41:15.212Z,91.29
2018-11-14T02:43:43.318Z,92.04
2018-11-14T02:46:11.579Z,91.98
2018-11-14T02:48:39.742Z,92.83
2018-11-14T02:51:19.150Z,92.50
2018-11-14T02:53:47.494Z,92.87
2018-11-14T02:56:15.689Z,92.54
2018-11-14T02:58:43.782Z,91.82
2018-11-14T03:01:11.892Z,92.20
2018-11-14T03:03:40.005Z,92.79
2018-11-14T03:06:08.317Z,93.09
2018-11-14T03:08:36.552Z,92.30
2018-11-14T03:11:04.848Z,93.20
2018-11-14T03:13:32.946Z,93.16
2018-11-14T03:16:01.076Z,92.54
2018-11-14T03:18:29.183Z,92.34
2018-11-14T03:20:57.306Z,92.18
2018-11-14T03:23:25.453Z,92.57
2018-11-14T03:25:53.599Z,92.78
2018-11-14T03:28:21.682Z,92.02
2018-11-14T03:30:49.808Z,92.19
2018-11-14T03:33:17.915Z,91.87
2018-11-14T03:35:51.540Z,92.32
2018-11-14T03:38:19.722Z,92.23
2018-11-14T03:40:47.902Z,92.67
2018-11-14T03:43:16.020Z,92.90
2018-11-14T03:45:44.216Z,91.40
2018-11-14T03:48:12.392Z,91.53
2018-11-14T03:50:40.507Z,91.19
2018-11-14T03:53:08.595Z,91.39
2018-11-14T03:55:36.756Z,91.40
2018-11-14T03:58:05.237Z,90.89
2018-11-14T04:00:33.277Z,91.55
2018-11-14T04:03:01.430Z,91.28
2018-11-14T04:05:29.662Z,92.16
2018-11-14T04:07:57.729Z,92.00
2018-11-14T04:10:25.911Z,93.32
2018-11-14T04:12:54.202Z,93.71
2018-11-14T04:15:22.344Z,93.93
2018-11-14T04:17:50.488Z,94.58
2018-11-14T04:20:18.618Z,94.56
2018-11-14T04:22:47.252Z,94.66
2018-11-14T04:25:17.663Z,94.26
2018-11-14T04:27:46.570Z,94.98
2018-11-14T04:30:15.773Z,94.56
2018-11-14T04:32:44.386Z,95.44
2018-11-14T04:35:13.596Z,94.81
2018-11-14T04:37:41.786Z,94.84
2018-11-14T04:40:12.192Z,95.19
2018-11-14T04:42:40.445Z,96.14
2018-11-14T04:45:10.572Z,96.60
2018-11-14T04:47:38.749Z,96.12
2018-11-14T04:50:09.253Z,96.33
2018-11-14T04:52:37.703Z,96.77
2018-11-14T04:55:07.237Z,96.71
2018-11-14T04:57:35.340Z,96.23
2018-11-14T05:00:03.505Z,96.47
2018-11-14T05:02:31.805Z,95.76
2018-11-14T05:04:59.839Z,96.19
2018-11-14T05:07:28.048Z,95.26
2018-11-14T05:09:56.321Z,95.14
2018-11-14T05:12:24.455Z,95.09
2018-11-14T05:14:52.596Z,95.55
2018-11-14T05:17:20.712Z,95.12
2018-11-14T05:19:48.872Z,95.21
2018-11-14T05:22:17.010Z,93.71
2018-11-14T05:24:45.268Z,94.70
2018-11-14T05:27:13.384Z,95.48
2018-11-14T05:29:41.514Z,95.85
2018-11-14T05:32:09.626Z,95.24
2018-11-14T05:34:37.828Z,94.93
2018-11-14T05:37:05.992Z,95.25
2018-11-14T05:39:34.399Z,95.03
2018-11-14T05:42:02.466Z,95.13
2018-11-14T05:44:30.605Z,96.14
2018-11-14T05:46:58.740Z,95.36
2018-11-14T05:49:26.924Z,96.11
2018-11-14T05:51:55.165Z,95.76
2018-11-14T05:54:23.312Z,95.99
2018-11-14T05:56:51.445Z,95.68
2018-11-14T05:59:19.602Z,96.66
2018-11-14T06:01:47.741Z,95.95
2018-11-14T06:04:15.960Z,97.04
2018-11-14T06:06:44.119Z,97.13
2018-11-14T06:09:13.814Z,96.57
2018-11-14T06:11:42.064Z,96.92
2018-11-14T06:14:10.214Z,96.63
2018-11-14T06:16:38.391Z,97.50
2018-11-14T06:19:06.566Z,97.30
2018-11-14T06:21:34.884Z,96.95
2018-11-14T06:24:03.060Z,96.43
2018-11-14T06:26:31.260Z,96.53
2018-11-14T06:28:59.387Z,96.73
2018-11-14T06:31:27.556Z,96.70
2018-11-14T06:33:55.738Z,97.11
2018-11-14T06:36:23.906Z,96.96
2018-11-14T06:38:52.094Z,97.19
2018-11-14T06:41:20.258Z,96.76
2018-11-14T06:43:48.426Z,96.29
2018-11-14T06:46:16.634Z,96.20
2018-11-14T06:48:44.902Z,96.41
2018-11-14T06:51:13.120Z,96.91
2018-11-14T06:53:41.262Z,96.50
2018-11-14T06:56:09.377Z,96.49
2018-11-14T06:58:37.510Z,96.48
2018-11-14T07:01:05.768Z,95.35
2018-11-14T07:03:33.950Z,96.57
2018-11-14T07:06:02.296Z,96.04
2018-11-14T07:08:30.261Z,95.70
2018-11-14T07:10:58.512Z,96.21
2018-11-14T07:13:26.590Z,95.47
2018-11-14T07:15:54.743Z,95.20
2018-11-14T07:18:22.869Z,95.33
2018-11-14T07:20:51.027Z,94.26
2018-11-14T07:23:19.214Z,94.24
2018-11-14T07:25:47.982Z,93.77
2018-11-14T07:28:16.177Z,93.63
2018-11-14T07:30:44.399Z,93.79
2018-11-14T07:33:12.741Z,93.47
2018-11-14T07:35:43.857Z,93.77
2018-11-14T07:38:21.893Z,94.24
2018-11-14T07:40:50.071Z,94.18
2018-11-14T07:43:18.301Z,93.54
2018-11-14T07:45:46.456Z,93.13
2018-11-14T07:48:14.573Z,93.05
2018-11-14T07:50:42.689Z,93.77
2018-11-14T07:53:10.952Z,93.79
2018-11-14T07:55:39.156Z,93.55
2018-11-14T07:58:07.274Z,93.40
2018-11-14T08:00:35.400Z,92.79
2018-11-14T08:03:03.599Z,92.87
2018-11-14T08:05:31.766Z,92.42
2018-11-14T08:07:59.965Z,92.75
2018-11-14T08:10:28.033Z,91.68
2018-11-14T08:13:02.889Z,92.50
2018-11-14T08:15:31.057Z,92.13
2018-11-14T08:17:59.204Z,91.94
2018-11-14T08:20:27.320Z,91.97
2018-11-14T08:22:55.766Z,92.25
2018-11-14T08:25:24.376Z,92.30
2018-11-14T08:27:52.514Z,91.42
2018-11-14T08:30:20.671Z,92.13
2018-11-14T08:32:48.904Z,91.42
2018-11-14T08:35:17.067Z,91.24
2018-11-14T08:37:45.258Z,91.68
2018-11-14T08:40:13.408Z,91.49
2018-11-14T08:42:42.066Z,91.37
2018-11-14T08:45:11.372Z,91.43
2018-11-14T08:47:40.261Z,90.83
2018-11-14T08:50:14.203Z,90.89
2018-11-14T08:52:49.250Z,90.62
2018-11-14T08:55:17.477Z,90.64
2018-11-14T08:57:46.559Z,89.98
2018-11-14T09:00:18.084Z,90.10
2018-11-14T09:02:46.713Z,89.01
2018-11-14T09:05:14.877Z,89.28
2018-11-14T09:07:43.070Z,88.92
2018-11-14T09:10:14.249Z,89.23
2018-11-14T09:12:42.731Z,88.80
2018-11-14T09:15:13.041Z,89.30
2018-11-14T09:17:41.140Z,88.35
2018-11-14T09:20:12.692Z,87.21
2018-11-14T09:22:41.017Z,87.01
2018-11-14T09:25:12.991Z,86.74
2018-11-14T09:27:41.840Z,86.73
2018-11-14T09:30:12.260Z,86.99
2018-11-14T09:32:40.434Z,87.18
2018-11-14T09:35:09.905Z,87.04
2018-11-14T09:37:38.292Z,86.94
2018-11-14T09:40:07.667Z,86.60
2018-11-14T09:42:36.061Z,85.90
2018-11-14T09:45:04.496Z,85.86
2018-11-14T09:47:32.635Z,86.40
2018-11-14T09:50:00.762Z,86.65
2018-11-14T09:52:28.889Z,85.90
2018-11-14T09:54:57.399Z,85.83
2018-11-14T09:57:25.550Z,85.69
2018-11-14T09:59:53.672Z,85.72
2018-11-14T10:02:21.861Z,86.39
2018-11-14T10:04:50.100Z,86.17
2018-11-14T10:07:18.288Z,86.05
2018-11-14T10:09:46.440Z,85.70
2018-11-14T10:12:14.574Z,85.61
2018-11-14T10:14:42.767Z,85.21
2018-11-14T10:17:10.983Z,85.30
2018-11-14T10:19:39.259Z,85.30
2018-11-14T10:22:07.452Z,84.60
2018-11-14T10:24:35.654Z,84.61
2018-11-14T10:27:03.853Z,84.87
2018-11-14T10:29:38.941Z,84.68
2018-11-14T10:32:07.082Z,84.22
2018-11-14T10:34:35.257Z,83.99
2018-11-14T10:37:03.369Z,83.85
2018-11-14T10:39:31.504Z,84.31
2018-11-14T10:41:59.695Z,84.45
2018-11-14T10:44:27.902Z,84.45
2018-11-14T10:46:56.076Z,84.36
2018-11-14T10:49:24.289Z,84.34
2018-11-14T10:54:27.014Z,84.36
2018-11-14T10:56:55.187Z,84.50
2018-11-14T10:59:23.358Z,84.56
2018-11-14T11:01:57.077Z,84.41
2018-11-14T11:04:30.540Z,84.45
2018-11-14T11:07:04.045Z,84.22
2018-11-14T11:10:41.079Z,84.03
2018-11-14T11:13:15.371Z,84.16
2018-11-14T11:15:49.298Z,83.34
2018-11-14T11:18:18.496Z,83.27
2018-11-14T11:20:46.854Z,82.70
2018-11-14T11:23:15.077Z,82.34
2018-11-14T11:25:43.619Z,82.16
2018-11-14T11:28:11.793Z,81.30
2018-11-14T11:30:40.121Z,80.43
2018-11-14T11:33:08.293Z,80.46
2018-11-14T11:35:36.741Z,80.17
2018-11-14T11:38:05.349Z,79.66
2018-11-14T11:40:33.912Z,78.83
2018-11-14T11:43:02.825Z,78.68
2018-11-14T11:45:31.208Z,78.00
2018-11-14T11:47:59.440Z,78.38
2018-11-14T11:50:27.861Z,78.25
2018-11-14T11:52:56.090Z,77.89
2018-11-14T11:55:24.263Z,78.14
2018-11-14T11:57:52.468Z,78.05
2018-11-14T12:00:21.618Z,78.65
2018-11-14T12:02:49.718Z,77.77
2018-11-14T12:05:17.970Z,78.47
2018-11-14T12:07:46.131Z,78.18
2018-11-14T12:10:15.180Z,76.71
2018-11-14T12:12:44.209Z,77.03
2018-11-14T12:15:13.253Z,77.02
2018-11-14T12:17:42.096Z,76.74
2018-11-14T12:20:12.083Z,76.61
2018-11-14T12:22:41.079Z,77.47
2018-11-14T12:25:10.954Z,77.43
2018-11-14T12:27:39.196Z,77.57
2018-11-14T12:30:11.291Z,78.12
2018-11-14T12:32:39.511Z,78.42
2018-11-14T12:35:08.905Z,78.70
2018-11-14T12:37:37.014Z,78.66
2018-11-14T12:40:05.776Z,77.98
2018-11-14T12:42:34.065Z,78.61
2018-11-14T12:45:02.266Z,78.68
2018-11-14T12:47:30.464Z,79.18
2018-11-14T12:49:58.669Z,79.47
2018-11-14T12:52:26.961Z,79.15
2018-11-14T12:55:01.858Z,79.49
2018-11-14T12:57:30.115Z,79.86
2018-11-14T12:59:58.291Z,79.28
2018-11-14T13:02:26.458Z,79.07
2018-11-14T13:04:54.645Z,78.12
2018-11-14T13:07:22.864Z,78.14
2018-11-14T13:09:51.097Z,77.91
2018-11-14T13:12:19.317Z,78.13
2018-11-14T13:14:47.496Z,77.32
2018-11-14T13:17:15.715Z,76.71
2018-11-14T13:19:43.868Z,76.35
2018-11-14T13:22:11.998Z,76.56
2018-11-14T13:24:40.180Z,76.82
2018-11-14T13:27:08.282Z,76.72
2018-11-14T13:29:36.440Z,76.82
2018-11-14T13:32:04.672Z,76.84
2018-11-14T13:34:32.846Z,77.19
2018-11-14T13:37:01.213Z,77.09
2018-11-14T13:39:29.382Z,77.63
2018-11-14T13:41:57.532Z,77.52
2018-11-14T13:44:25.664Z,77.53
2018-11-14T13:46:54.110Z,77.52
2018-11-14T13:49:22.370Z,77.94
2018-11-14T13:51:50.613Z,77.95
2018-11-14T13:54:18.779Z,78.01
2018-11-14T13:56:47.099Z,78.24
2018-11-14T13:59:15.274Z,78.45
2018-11-14T14:01:43.562Z,77.84
2018-11-14T14:04:11.821Z,78.75
2018-11-14T14:06:40.062Z,78.72
2018-11-14T14:09:10.092Z,78.19
2018-11-14T14:11:38.198Z,78.64
2018-11-14T14:14:13.793Z,78.25
2018-11-14T14:16:43.148Z,78.21
2018-11-14T14:19:11.343Z,79.91
2018-11-14T14:21:40.097Z,79.68
2018-11-14T14:24:08.525Z,80.32
2018-11-14T14:26:37.623Z,80.18
2018-11-14T14:29:06.052Z,81.12
2018-11-14T14:31:34.371Z,81.31
2018-11-14T14:34:02.558Z,82.24
2018-11-14T14:36:30.738Z,82.72
2018-11-14T14:38:58.951Z,82.85
2018-11-14T14:41:27.145Z,82.58
2018-11-14T14:43:55.425Z,82.31
2018-11-14T14:46:30.054Z,82.79
2018-11-14T14:48:58.195Z,82.97
2018-11-14T14:51:26.415Z,83.26
2018-11-14T15:04:12.336Z,84.99
2018-11-14T15:14:02.059Z,86.07
2018-11-14T15:16:30.384Z,86.43
2018-11-14T15:18:58.582Z,85.88
2018-11-14T15:21:26.796Z,86.56
2018-11-14T15:23:55.044Z,86.36
2018-11-14T15:26:23.240Z,86.45
2018-11-14T15:28:51.404Z,86.10
2018-11-14T15:31:19.602Z,86.92
2018-11-14T15:33:47.986Z,87.18
2018-11-14T15:36:16.146Z,87.00
2018-11-14T15:38:44.351Z,87.38
2018-11-14T15:41:12.500Z,88.54
2018-11-14T15:43:40.679Z,87.65
2018-11-14T15:46:08.808Z,87.80
2018-11-14T15:48:37.006Z,88.26
2018-11-14T15:51:05.576Z,88.02
2018-11-14T15:53:33.701Z,88.81
2018-11-14T15:56:01.863Z,88.54
2018-11-14T15:58:30.006Z,88.73
2018-11-14T16:00:58.186Z,88.78
2018-11-14T16:03:26.376Z,88.55
2018-11-14T16:05:54.543Z,88.17
2018-11-14T16:08:22.712Z,89.30
2018-11-14T16:10:50.870Z,89.17
2018-11-14T16:13:19.088Z,90.16
2018-11-14T16:15:47.320Z,90.59
2018-11-14T16:18:16.449Z,90.44
2018-11-14T16:20:44.644Z,90.07
2018-11-14T16:23:12.781Z,90.71
2018-11-14T16:25:40.923Z,90.43
2018-11-14T16:28:09.330Z,90.61
2018-11-14T16:30:38.165Z,90.40
2018-11-14T16:33:07.478Z,90.62
2018-11-14T16:35:35.682Z,91.38
2018-11-14T16:38:03.961Z,91.06
2018-11-14T16:40:33.472Z,90.87
2018-11-14T16:43:03.035Z,90.80
2018-11-14T16:45:31.174Z,91.18
2018-11-14T16:47:59.398Z,91.32
2018-11-14T16:50:27.537Z,90.68
2018-11-14T16:52:55.681Z,91.93
2018-11-14T16:55:24.337Z,91.32
2018-11-14T16:57:53.581Z,92.08
2018-11-14T17:00:29.537Z,91.31
2018-11-14T17:02:57.825Z,92.60
2018-11-14T17:05:26.900Z,92.03
2018-11-14T17:07:55.053Z,92.81
2018-11-14T17:10:23.548Z,92.14
2018-11-14T17:12:54.231Z,91.99
2018-11-14T17:15:23.503Z,92.28
2018-11-14T17:17:51.898Z,92.09
2018-11-14T17:20:20.894Z,92.56
2018-11-14T17:22:49.701Z,92.43
2018-11-14T17:25:18.606Z,93.08
2018-11-14T17:27:47.048Z,92.87
2018-11-14T17:30:16.675Z,93.16
2018-11-14T17:32:45.100Z,92.60
2018-11-14T17:35:14.182Z,93.57
2018-11-14T17:37:43.258Z,93.97
2018-11-14T17:40:14.822Z,94.02
2018-11-14T17:42:43.814Z,94.64
2018-11-14T17:45:14.141Z,95.09
2018-11-14T17:47:42.408Z,94.50
2018-11-14T17:50:13.157Z,94.23
2018-11-14T17:52:41.332Z,94.50
2018-11-14T17:55:11.165Z,93.89
2018-11-14T17:57:39.394Z,93.94
2018-11-14T18:00:09.972Z,94.27
2018-11-14T18:02:38.565Z,93.70
2018-11-14T18:05:08.588Z,94.05
2018-11-14T18:07:36.887Z,93.36
2018-11-14T18:10:05.789Z,94.45
2018-11-14T18:12:33.948Z,94.96
2018-11-14T18:15:02.176Z,94.67
2018-11-14T18:17:30.504Z,95.18
2018-11-14T18:19:58.707Z,95.02
2018-11-14T18:22:26.935Z,94.54
2018-11-14T18:24:55.093Z,94.67
2018-11-14T18:27:23.403Z,94.99
2018-11-14T18:29:51.994Z,95.31
2018-11-14T18:32:20.237Z,94.75
2018-11-14T18:34:48.420Z,94.48
2018-11-14T18:37:16.630Z,94.62
2018-11-14T18:39:45.019Z,94.57
2018-11-14T18:42:13.055Z,94.23
2018-11-14T18:44:41.346Z,94.51
2018-11-14T18:47:09.756Z,94.23
2018-11-14T18:49:38.032Z,94.60
2018-11-14T18:52:06.352Z,93.18
2018-11-14T18:54:34.708Z,94.75
2018-11-14T18:57:02.988Z,94.27
2018-11-14T18:59:31.554Z,94.33
2018-11-14T19:01:59.794Z,94.94
2018-11-14T19:04:31.862Z,94.02
2018-11-14T19:07:00.085Z,94.91
2018-11-14T19:09:28.338Z,94.76
2018-11-14T19:11:56.558Z,94.56
2018-11-14T19:14:24.851Z,95.62
2018-11-14T19:16:53.119Z,95.42
2018-11-14T19:19:21.416Z,96.20
2018-11-14T19:21:49.709Z,95.54
2018-11-14T19:24:18.062Z,95.58
2018-11-14T19:26:46.573Z,94.46
2018-11-14T19:29:14.782Z,94.46
2018-11-14T19:31:42.978Z,95.06
2018-11-14T19:34:11.254Z,95.26
2018-11-14T19:36:39.590Z,95.06
2018-11-14T19:39:09.951Z,95.55
2018-11-14T19:41:38.173Z,95.04
2018-11-14T19:44:06.638Z,94.46
2018-11-14T19:46:34.989Z,94.40
2018-11-14T19:49:03.303Z,94.97
2018-11-14T19:51:31.708Z,95.22
2018-11-14T19:54:00.151Z,95.21
2018-11-14T19:56:28.454Z,95.19
2018-11-14T19:58:56.746Z,95.37
2018-11-14T20:01:24.973Z,95.35
2018-11-14T20:03:53.269Z,94.95
2018-11-14T20:06:21.490Z,94.80
2018-11-14T20:08:49.732Z,94.83
2018-11-14T20:11:17.984Z,95.77
2018-11-14T20:13:46.307Z,94.96
2018-11-14T20:16:14.571Z,95.98
2018-11-14T20:18:42.872Z,95.62
2018-11-14T20:21:11.186Z,95.48
2018-11-14T20:23:39.587Z,95.23
2018-11-14T20:26:07.885Z,95.79
2018-11-14T20:28:36.148Z,94.64
2018-11-14T20:31:04.525Z,94.91
2018-11-14T20:33:32.761Z,95.62
2018-11-14T20:36:01.076Z,95.58
2018-11-14T20:38:29.410Z,94.55
2018-11-14T20:40:57.923Z,95.51
2018-11-14T20:43:26.759Z,95.16
2018-11-14T20:45:55.006Z,94.38
2018-11-14T20:48:23.287Z,95.56
2018-11-14T20:50:51.575Z,96.18
2018-11-14T20:53:19.865Z,96.02
2018-11-14T20:55:48.227Z,96.22
2018-11-14T20:58:16.529Z,96.22
2018-11-14T21:00:44.884Z,97.09
2018-11-14T21:03:14.466Z,96.51
2018-11-14T21:05:42.857Z,96.57
2018-11-14T21:08:11.151Z,95.97
2018-11-14T21:10:40.118Z,96.34
2018-11-14T21:13:08.604Z,96.08
2018-11-14T21:15:39.171Z,95.29
2018-11-14T21:18:07.637Z,95.27
2018-11-14T21:20:36.035Z,96.25
2018-11-14T21:23:04.848Z,94.97
2018-11-14T21:25:33.063Z,96.05
2018-11-14T21:28:01.345Z,95.57
2018-11-14T21:30:30.374Z,95.91
2018-11-14T21:32:58.723Z,95.89
2018-11-14T21:35:29.731Z,95.50
2018-11-14T21:38:00.109Z,95.07
2018-11-14T21:40:28.540Z,95.72
2018-11-14T21:42:56.801Z,94.87
2018-11-14T21:45:26.459Z,95.12
2018-11-14T21:47:59.895Z,95.09
2018-11-14T21:50:28.887Z,96.26
2018-11-14T21:52:57.137Z,95.46
2018-11-14T21:55:26.210Z,95.66
2018-11-14T21:57:54.401Z,96.11
2018-11-14T22:00:29.659Z,96.34
2018-11-14T22:02:57.917Z,96.87
2018-11-14T22:05:26.102Z,96.03
2018-11-14T22:07:54.291Z,95.58
2018-11-14T22:10:23.530Z,94.50
2018-11-14T22:12:52.137Z,95.63
2018-11-14T22:15:21.645Z,95.83
2018-11-14T22:17:50.106Z,94.99
2018-11-14T22:20:19.426Z,95.60
2018-11-14T22:22:47.988Z,95.41
2018-11-14T22:25:17.494Z,94.31
2018-11-14T22:27:45.727Z,94.67
2018-11-14T22:30:16.341Z,95.24
2018-11-14T22:32:44.567Z,95.64
2018-11-14T22:35:14.288Z,96.74
2018-11-14T22:37:42.616Z,95.73
2018-11-14T22:40:13.627Z,95.43
2018-11-14T22:42:41.969Z,95.85
2018-11-14T22:45:12.135Z,96.24
2018-11-14T22:47:41.058Z,95.11
2018-11-14T22:50:10.552Z,95.42
2018-11-14T22:52:39.338Z,95.97
2018-11-14T22:55:08.342Z,95.44
2018-11-14T22:57:36.480Z,95.62
2018-11-14T23:00:08.812Z,96.14
2018-11-14T23:02:37.340Z,96.22
2018-11-14T23:05:05.599Z,96.28
2018-11-14T23:07:33.725Z,96.70
2018-11-14T23:10:01.971Z,96.13
2018-11-14T23:12:30.080Z,95.21
2018-11-14T23:14:58.211Z,96.04
2018-11-14T23:17:26.427Z,96.17
2018-11-14T23:19:54.563Z,95.50
2018-11-14T23:22:22.694Z,95.84
2018-11-14T23:24:50.842Z,96.16
2018-11-14T23:27:18.937Z,96.34
2018-11-14T23:29:47.054Z,96.60
2018-11-14T23:32:15.263Z,96.94
2018-11-14T23:34:48.821Z,96.22
2018-11-14T23:37:17.078Z,95.98
2018-11-14T23:39:45.208Z,95.55
2018-11-14T23:42:13.330Z,95.82
2018-11-14T23:44:41.559Z,96.04
2018-11-14T23:47:09.670Z,95.46
2018-11-14T23:49:37.781Z,95.31
2018-11-14T23:52:05.934Z,95.98
2018-11-14T23:54:34.124Z,95.85
2018-11-14T23:57:02.378Z,94.80
2018-11-14T23:59:30.560Z,94.96
